Time;durP1;ratioP1;P1;durP2;ratioP2;P2;SDS_P1;SDS_P2;PMS_P1;PMS_P2;Temp;Humidity;BMP_temperature;BMP_pressure;BME280_temperature;BME280_humidity;BME280_pressure;Samples;Min_cycle;Max_cycle;Signal;HPM_P1;HPM_P2
2023/06/12 01:39:40;;;;;;;;;;;;;;;;;;;;;
2023/06/12 02:38:53;;;;;;;;;;;;;;;;;;;;;
2023/06/12 03:57:31;;;;;;;;;;;;;;;;;;;;;
2023/06/12 05:41:39;;;;;;;;;15.00;14.00;;;;;21.70;74.90;100992.94;6243348;22;45533;-67
2023/06/12 05:44:06;;;;;;;;;17.25;14.25;;;;;21.54;74.33;100973.34;6244294;22;46230;-67
2023/06/12 05:46:51;;;;;;;;;;;;;;;;;;;;;
2023/06/12 05:49:37;;;;;;;;;13.00;11.50;;;;;21.39;75.00;100961.75;6244455;22;67696;-66
2023/06/12 05:52:52;;;;;;;;;;;;;;;;;;;;;
2023/06/12 05:55:51;;;;;;;;;13.75;12.50;;;;;21.61;74.42;101001.78;6244901;22;75211;-67
2023/06/12 06:01:26;;;;;;;;;;;;;;;;;;;;;
2023/06/12 06:04:16;;;;;;;;;14.50;14.50;;;;;21.44;74.64;100993.00;6244577;22;72736;-67
2023/06/12 06:06:52;;;;;;;;;;;;;;;;;;;;;
2023/06/12 06:09:58;;;;;;;;;16.00;13.75;;;;;21.52;74.55;100994.31;6244242;22;73045;-67
2023/06/12 06:12:56;;;;;;;;;;;;;;;;;;;;;
2023/06/12 06:15:52;;;;;;;;;16.00;14.00;;;;;21.42;74.41;100977.81;6244727;22;72622;-67
2023/06/12 06:19:04;;;;;;;;;12.50;10.75;;;;;21.59;74.34;100998.31;6244876;22;46179;-68
2023/06/12 06:41:41;;;;;;;;;;;;;;;;;;;;;
2023/06/12 06:44:17;;;;;;;;;;;;;;;;;;;;;
2023/06/12 06:47:22;;;;;;;;;;;;;;;;;;;;;
2023/06/12 06:49:57;;;;;;;;;;;;;;;;;;;;;
2023/06/12 06:52:56;;;;;;;;;;;;;;;;;;;;;
2023/06/12 06:55:44;;;;;;;;;;;;;;;;;;;;;
2023/06/12 06:58:23;;;;;;;;;;;;;;;;;;;;;
2023/06/12 07:01:12;;;;;;;;;;;;;;;;;;;;;
2023/06/12 07:03:40;;;;;;;;;9.25;9.25;;;;;21.83;72.81;101014.59;6271320;22;75128;-67
2023/06/12 07:06:32;;;;;;;;;13.75;12.25;;;;;21.70;72.49;100994.78;6272126;22;45274;-68
2023/06/12 07:09:13;;;;;;;;;;;;;;;;;;;;;
2023/06/12 07:12:35;;;;;;;;;15.25;14.00;;;;;21.78;73.09;101014.94;6273824;22;72429;-68
2023/06/12 07:15:08;;;;;;;;;14.75;11.75;;;;;21.67;72.61;100995.91;6271737;22;45569;-68
2023/06/12 07:18:14;;;;;;;;;;;;;;;;;;;;;
2023/06/12 07:23:50;;;;;;;;;;;;;;;;;;;;;
2023/06/12 07:26:54;;;;;;;;;;;;;;;;;;;;;
2023/06/12 07:29:55;;;;;;;;;13.75;13.00;;;;;21.73;73.25;101000.00;6274739;22;72889;-67
2023/06/12 07:33:10;;;;;;;;;9.25;7.75;;;;;21.89;73.22;101011.44;6276334;22;45259;-68
2023/06/12 07:42:30;;;;;;;;;11.00;10.50;;;;;21.97;72.33;101019.88;6306675;22;45541;-66
2023/06/12 07:44:56;;;;;;;;;12.25;10.50;;;;;21.94;72.22;101001.06;6275996;22;45517;-66
2023/06/12 07:47:21;;;;;;;;;13.00;11.25;;;;;21.92;72.51;100999.44;6307450;22;45561;-67
2023/06/12 07:49:46;;;;;;;;;12.00;11.00;;;;;21.84;72.27;100984.59;6307124;22;45306;-67
2023/06/12 07:52:12;;;;;;;;;13.25;12.75;;;;;22.08;72.07;101013.59;6280192;22;45487;-67
2023/06/12 07:54:37;;;;;;;;;14.75;14.75;;;;;22.03;72.26;101007.66;6308505;22;45339;-66
2023/06/12 07:57:04;;;;;;;;;13.50;13.50;;;;;21.86;72.31;100975.47;6279090;22;45311;-68
2023/06/12 07:59:32;;;;;;;;;16.00;13.00;;;;;21.89;72.54;100995.13;6307273;22;45438;-68
2023/06/12 08:01:57;;;;;;;;;11.75;11.75;;;;;21.97;72.49;101002.72;6279733;22;45479;-68
2023/06/12 08:04:22;;;;;;;;;15.00;15.00;;;;;22.02;71.89;101003.22;6280150;22;45269;-68
2023/06/12 08:06:48;;;;;;;;;17.50;16.25;;;;;22.06;72.07;101014.72;6307735;22;45362;-68
2023/06/12 08:09:15;;;;;;;;;14.25;13.50;;;;;22.06;72.28;101010.16;6305968;22;46575;-68
2023/06/12 08:11:41;;;;;;;;;13.50;13.50;;;;;21.98;71.98;100993.56;6307498;22;45700;-68
2023/06/12 08:14:07;;;;;;;;;16.50;13.50;;;;;22.02;72.23;100990.50;6279922;22;45362;-69
2023/06/12 08:16:32;;;;;;;;;9.50;8.75;;;;;22.03;72.14;100980.47;6307517;22;45640;-71
2023/06/12 08:18:58;;;;;;;;;11.50;10.25;;;;;22.06;72.22;100979.38;6307461;22;45976;-65
2023/06/12 08:21:25;;;;;;;;;17.50;14.50;;;;;22.18;72.10;100990.16;6280004;22;45375;-65
2023/06/12 08:23:51;;;;;;;;;15.50;14.25;;;;;22.15;72.33;100981.38;6280331;22;45404;-66
2023/06/12 08:26:17;;;;;;;;;13.50;11.50;;;;;22.16;71.99;100973.09;6279620;22;45655;-69
2023/06/12 08:28:42;;;;;;;;;13.50;13.50;;;;;22.12;71.98;100968.00;6307294;22;45438;-65
2023/06/12 08:31:08;;;;;;;;;15.50;14.75;;;;;22.16;71.73;100969.53;6307128;22;45313;-66
2023/06/12 08:33:33;;;;;;;;;14.50;13.25;;;;;22.17;72.06;100965.84;6308188;22;45319;-65
2023/06/12 08:35:59;;;;;;;;;17.75;16.75;;;;;22.30;71.63;100992.94;6307826;22;45392;-65
2023/06/12 08:38:24;;;;;;;;;19.50;16.25;;;;;22.29;71.41;100981.22;6306643;22;46486;-66
2023/06/12 08:40:54;;;;;;;;;13.50;13.25;;;;;22.16;71.62;100959.50;6305935;22;45362;-70
2023/06/12 08:43:20;;;;;;;;;17.00;13.75;;;;;22.18;71.62;100960.25;6307147;22;45383;-72
2023/06/12 08:45:47;;;;;;;;;17.50;16.50;;;;;22.20;71.34;100962.84;6306122;22;45369;-69
2023/06/12 08:48:17;;;;;;;;;15.75;15.00;;;;;22.21;71.29;100959.16;6307268;22;45370;-68
2023/06/12 08:50:44;;;;;;;;;17.25;15.25;;;;;22.13;70.99;100942.56;6307069;22;45577;-68
2023/06/12 08:53:10;;;;;;;;;16.50;16.00;;;;;22.23;70.80;100959.03;6307686;22;45398;-68
2023/06/12 08:55:39;;;;;;;;;19.25;16.75;;;;;22.16;71.11;100953.22;6308387;22;45261;-68
2023/06/12 08:58:07;;;;;;;;;16.00;14.50;;;;;22.10;71.23;100940.09;6279593;22;47465;-67
2023/06/12 09:00:32;;;;;;;;;19.50;16.75;;;;;22.26;71.57;100962.38;6279411;22;45786;-68
2023/06/12 09:02:58;;;;;;;;;14.25;13.00;;;;;22.37;71.62;100981.47;6308369;22;45358;-68
2023/06/12 09:05:26;;;;;;;;;20.25;17.25;;;;;22.37;71.09;100977.91;6307624;22;45283;-66
2023/06/12 09:07:53;;;;;;;;;18.25;16.00;;;;;22.39;70.99;100975.94;6305692;22;45252;-68
2023/06/12 09:10:18;;;;;;;;;17.75;16.75;;;;;22.30;71.48;100960.31;6307225;22;45292;-68
2023/06/12 09:12:45;;;;;;;;;18.25;14.00;;;;;22.35;71.98;100949.94;6280214;22;45281;-69
2023/06/12 09:15:18;;;;;;;;;20.25;17.25;;;;;22.41;71.48;100962.22;6277723;22;45647;-68
2023/06/12 09:17:47;;;;;;;;;19.50;17.00;;;;;22.35;71.33;100950.81;6305908;22;46414;-68
2023/06/12 09:20:28;;;;;;;;;12.75;10.00;;;;;22.36;71.65;100948.97;6305682;22;45445;-68
2023/06/12 09:22:54;;;;;;;;;19.25;17.50;;;;;22.42;72.10;100959.38;6307370;22;45273;-68
2023/06/12 09:25:20;;;;;;;;;17.25;17.25;;;;;22.48;71.51;100960.72;6306565;22;45430;-68
2023/06/12 09:27:49;;;;;;;;;20.75;18.00;;;;;22.50;71.53;100964.19;6307036;22;46369;-68
2023/06/12 09:30:15;;;;;;;;;15.00;14.50;;;;;22.57;71.83;100979.91;6306870;22;45422;-68
2023/06/12 09:32:43;;;;;;;;;14.75;13.50;;;;;22.55;71.66;100970.13;6307480;22;45257;-68
2023/06/12 09:35:14;;;;;;;;;17.00;16.75;;;;;22.63;71.52;100973.09;6306912;22;45474;-68
2023/06/12 09:37:40;;;;;;;;;21.75;21.50;;;;;22.56;70.93;100964.56;6306952;22;45520;-68
2023/06/12 09:40:11;;;;;;;;;18.00;17.50;;;;;22.73;71.20;100982.25;6306606;22;45255;-68
2023/06/12 09:42:41;;;;;;;;;20.50;19.50;;;;;22.67;71.01;100961.00;6307182;22;45448;-68
2023/06/12 09:45:17;;;;;;;;;19.25;17.50;;;;;22.78;70.82;100976.44;6306359;22;45596;-68
2023/06/12 09:47:51;;;;;;;;;9.25;7.75;;;;;22.75;70.67;100965.81;6305147;22;45390;-69
2023/06/12 09:50:19;;;;;;;;;22.50;19.75;;;;;22.61;70.69;100945.16;6305846;22;45453;-69
2023/06/12 09:52:46;;;;;;;;;20.00;18.50;;;;;22.92;70.34;100984.38;6307262;22;45344;-69
2023/06/12 09:55:17;;;;;;;;;19.75;18.75;;;;;22.82;70.02;100983.41;6306067;22;45405;-70
2023/06/12 09:57:47;;;;;;;;;17.25;16.50;;;;;22.76;70.46;100983.88;6305271;22;46092;-69
2023/06/12 10:00:15;;;;;;;;;24.25;21.75;;;;;22.65;70.80;100976.56;6305914;22;45590;-69
2023/06/12 10:02:45;;;;;;;;;17.75;17.75;;;;;22.82;70.52;100997.00;6306502;22;45189;-69
2023/06/12 10:05:20;;;;;;;;;17.25;17.25;;;;;22.87;70.30;100993.91;6306921;22;45335;-69
2023/06/12 10:07:53;;;;;;;;;18.25;18.25;;;;;22.78;70.32;100971.00;6305088;22;46151;-67
2023/06/12 10:10:19;;;;;;;;;19.75;19.75;;;;;22.76;70.41;100970.28;6277693;22;45371;-69
2023/06/12 10:12:45;;;;;;;;;21.75;19.25;;;;;22.80;70.07;100982.63;6307213;22;45365;-69
2023/06/12 10:15:15;;;;;;;;;22.25;19.75;;;;;22.79;70.40;100974.59;6304782;22;45578;-69
2023/06/12 10:17:41;;;;;;;;;25.25;21.75;;;;;22.83;70.58;100985.13;6305331;22;45497;-69
2023/06/12 10:20:11;;;;;;;;;23.75;20.75;;;;;22.91;70.71;100993.53;6306534;22;45641;-69
2023/06/12 10:22:37;;;;;;;;;25.00;23.75;;;;;22.90;70.66;100993.66;6279342;22;45399;-68
2023/06/12 10:25:05;;;;;;;;;23.50;21.00;;;;;22.83;70.07;100973.38;6306396;22;45314;-69
2023/06/12 10:27:32;;;;;;;;;21.25;20.50;;;;;22.98;70.35;100993.03;6301478;22;45512;-69
2023/06/12 10:29:59;;;;;;;;;25.00;23.25;;;;;22.91;70.47;100982.63;6304965;22;45513;-68
2023/06/12 10:32:30;;;;;;;;;20.25;19.00;;;;;22.78;70.59;100962.00;6305173;22;45335;-68
2023/06/12 10:34:56;;;;;;;;;16.25;16.00;;;;;22.79;70.90;100959.16;6278395;22;45475;-68
2023/06/12 10:37:39;;;;;;;;;25.00;22.25;;;;;22.79;70.59;100956.44;6306055;22;45436;-67
2023/06/12 10:40:16;;;;;;;;;23.25;21.50;;;;;22.98;70.83;100990.31;6275629;22;45414;-67
2023/06/12 10:42:50;;;;;;;;;23.75;21.50;;;;;22.85;70.46;100966.78;6306778;22;45335;-67
2023/06/12 10:45:19;;;;;;;;;25.50;22.00;;;;;23.00;71.22;100985.63;6278135;22;45505;-68
2023/06/12 10:48:06;;;;;;;;;21.75;21.75;;;;;23.01;71.09;100976.47;6306141;22;45588;-68
2023/06/12 10:50:47;;;;;;;;;26.00;24.50;;;;;22.96;70.78;100959.66;6305780;22;45445;-67
2023/06/12 10:53:15;;;;;;;;;21.25;19.75;;;;;23.12;70.59;100990.09;6305498;22;45344;-68
2023/06/12 10:55:42;;;;;;;;;25.00;23.75;;;;;22.99;70.88;100956.66;6305992;22;45468;-67
2023/06/12 10:58:12;;;;;;;;;26.25;24.75;;;;;23.12;70.60;100982.81;6305675;22;45346;-68
2023/06/12 11:00:47;;;;;;;;;26.50;26.50;;;;;23.10;70.59;100975.72;6306420;22;45423;-68
2023/06/12 11:03:19;;;;;;;;;25.75;23.50;;;;;22.99;70.28;100951.19;6307212;22;45425;-68
2023/06/12 11:05:51;;;;;;;;;27.25;24.00;;;;;22.96;70.38;100951.47;6303785;22;45319;-68
2023/06/12 11:08:17;;;;;;;;;29.25;27.00;;;;;23.15;70.22;100975.38;6304317;22;46367;-68
2023/06/12 11:10:44;;;;;;;;;29.75;27.50;;;;;23.05;69.90;100958.88;6305772;22;45484;-68
2023/06/12 11:13:10;;;;;;;;;27.00;25.50;;;;;23.11;70.73;100978.34;6305022;22;45550;-67
2023/06/12 11:15:46;;;;;;;;;25.00;24.25;;;;;22.97;70.56;100947.75;6276769;22;45543;-68
2023/06/12 11:18:13;;;;;;;;;29.25;26.50;;;;;23.05;70.40;100957.00;6305566;22;45629;-67
2023/06/12 11:20:38;;;;;;;;;25.00;23.75;;;;;23.08;70.29;100953.22;6306138;22;45499;-67
2023/06/12 11:23:05;;;;;;;;;29.75;28.25;;;;;23.05;70.47;100943.41;6279158;22;45242;-68
2023/06/12 11:25:35;;;;;;;;;27.75;27.75;;;;;23.06;70.40;100947.00;6306033;22;45361;-67
2023/06/12 11:28:02;;;;;;;;;23.25;23.25;;;;;23.32;70.54;100988.44;6276236;22;46386;-68
2023/06/12 11:30:27;;;;;;;;;26.50;22.50;;;;;23.34;70.04;100978.31;6305027;22;45302;-68
2023/06/12 11:32:53;;;;;;;;;29.50;28.75;;;;;23.33;70.17;100962.94;6306692;22;45609;-68
2023/06/12 11:35:18;;;;;;;;;25.00;23.00;;;;;23.40;70.54;100969.63;6278441;22;45498;-68
2023/06/12 11:37:44;;;;;;;;;25.25;25.00;;;;;23.28;70.37;100936.09;6307333;22;45208;-67
2023/06/12 11:40:13;;;;;;;;;24.50;23.50;;;;;23.45;69.94;100953.75;6305401;22;45432;-68
2023/06/12 11:42:40;;;;;;;;;28.00;26.75;;;;;23.36;70.39;100926.44;6278881;22;45326;-68
2023/06/12 11:45:10;;;;;;;;;26.00;25.00;;;;;23.42;70.01;100934.97;6305995;22;45354;-68
2023/06/12 11:47:40;;;;;;;;;27.75;27.00;;;;;23.41;70.07;100918.75;6304830;22;45377;-68
2023/06/12 11:50:14;;;;;;;;;31.25;26.75;;;;;23.44;70.04;100916.63;6304661;22;45604;-68
2023/06/12 11:52:42;;;;;;;;;24.25;23.00;;;;;23.50;69.97;100923.41;6305839;22;45437;-68
2023/06/12 11:55:09;;;;;;;;;22.00;21.75;;;;;23.60;70.94;100929.81;6277763;22;45410;-71
2023/06/12 11:57:36;;;;;;;;;28.25;28.25;;;;;23.63;70.43;100935.00;6278227;22;47283;-69
2023/06/12 12:00:12;;;;;;;;;20.00;18.50;;;;;23.65;69.96;100923.97;6307026;22;45431;-68
2023/06/12 12:02:41;;;;;;;;;30.00;29.00;;;;;23.74;69.57;100935.94;6278103;22;45351;-68
2023/06/12 12:05:10;;;;;;;;;24.50;21.75;;;;;23.72;70.00;100919.72;6306638;22;45330;-68
2023/06/12 12:07:38;;;;;;;;;24.50;23.75;;;;;23.77;69.66;100925.66;6306171;22;46053;-69
2023/06/12 12:10:12;;;;;;;;;28.75;27.50;;;;;23.93;69.36;100947.03;6300909;22;45677;-69
2023/06/12 12:12:46;;;;;;;;;23.00;23.00;;;;;23.83;70.01;100927.03;6299491;22;45536;-69
2023/06/12 12:15:13;;;;;;;;;31.25;29.00;;;;;23.90;69.25;100925.50;6299977;22;45622;-68
2023/06/12 12:17:42;;;;;;;;;24.75;24.50;;;;;23.89;69.88;100920.16;6301746;22;45820;-68
2023/06/12 12:20:15;;;;;;;;;24.25;23.25;;;;;23.88;69.62;100913.88;6302266;22;45331;-69
2023/06/12 12:22:41;;;;;;;;;27.75;23.50;;;;;23.98;70.28;100916.66;6303489;22;45512;-68
2023/06/12 12:25:08;;;;;;;;;26.50;23.75;;;;;23.88;69.74;100897.50;6302039;22;45509;-67
2023/06/12 12:27:38;;;;;;;;;20.00;19.50;;;;;24.10;69.41;100934.69;6302447;22;45718;-68
2023/06/12 12:30:04;;;;;;;;;26.00;25.25;;;;;24.01;70.14;100910.94;6302701;22;45681;-67
2023/06/12 12:32:29;;;;;;;;;23.25;22.25;;;;;24.10;70.49;100914.75;6303196;22;45645;-68
2023/06/12 12:34:57;;;;;;;;;29.50;28.00;;;;;24.22;69.28;100928.19;6301345;22;45920;-68
2023/06/12 12:37:22;;;;;;;;;28.75;27.25;;;;;24.27;69.43;100935.94;6301992;22;45614;-67
2023/06/12 12:39:47;;;;;;;;;22.75;22.75;;;;;24.14;69.64;100899.81;6274231;22;45382;-67
2023/06/12 12:42:13;;;;;;;;;24.75;22.75;;;;;24.17;69.51;100895.00;6303274;22;45666;-67
2023/06/12 12:44:38;;;;;;;;;27.50;24.25;;;;;24.25;69.83;100891.56;6300613;22;45428;-71
2023/06/12 12:47:04;;;;;;;;;22.50;22.50;;;;;24.42;69.51;100909.16;6304076;22;45546;-68
2023/06/12 12:49:30;;;;;;;;;23.75;23.00;;;;;24.40;69.19;100903.84;6278228;22;45689;-68
2023/06/12 12:51:55;;;;;;;;;26.75;23.25;;;;;24.51;69.09;100907.53;6307017;22;45295;-68
2023/06/12 12:54:20;;;;;;;;;23.25;23.25;;;;;24.45;68.88;100880.78;6306322;22;45273;-68
2023/06/12 12:56:46;;;;;;;;;24.50;23.50;;;;;24.52;68.73;100887.41;6305929;22;46179;-68
2023/06/12 12:59:12;;;;;;;;;28.25;25.75;;;;;24.53;68.27;100884.53;6307239;22;45534;-68
2023/06/12 13:01:37;;;;;;;;;25.25;22.00;;;;;24.54;68.41;100886.28;6306258;22;45457;-68
2023/06/12 13:04:03;;;;;;;;;24.50;24.50;;;;;24.59;69.11;100877.69;6277596;22;45535;-68
2023/06/12 13:06:29;;;;;;;;;31.50;28.25;;;;;24.60;67.98;100882.16;6305415;22;45485;-68
2023/06/12 13:08:54;;;;;;;;;22.50;21.75;;;;;24.58;67.92;100879.56;6306267;22;45406;-68
2023/06/12 13:11:19;;;;;;;;;26.00;23.75;;;;;24.64;68.38;100871.81;6305576;22;45301;-68
2023/06/12 13:13:45;;;;;;;;;23.00;23.00;;;;;24.68;68.20;100882.31;6306973;22;45340;-68
2023/06/12 13:16:11;;;;;;;;;20.25;20.00;;;;;24.69;67.74;100872.25;6305767;22;45546;-69
2023/06/12 13:18:37;;;;;;;;;23.00;22.75;;;;;24.66;68.54;100867.06;6306178;22;45248;-68
2023/06/12 13:21:03;;;;;;;;;22.00;21.50;;;;;24.69;68.33;100856.78;6306818;22;45309;-68
2023/06/12 13:23:28;;;;;;;;;26.50;23.75;;;;;24.87;68.10;100881.53;6306345;22;45711;-68
2023/06/12 13:25:55;;;;;;;;;20.25;18.25;;;;;24.88;68.12;100880.53;6277135;22;47212;-68
2023/06/12 13:28:21;;;;;;;;;25.75;24.75;;;;;24.81;68.18;100865.72;6306729;22;45243;-68
2023/06/12 13:30:47;;;;;;;;;20.75;20.75;;;;;24.72;67.87;100850.16;6306202;22;45593;-68
2023/06/12 13:33:13;;;;;;;;;22.75;22.75;;;;;24.77;68.10;100851.50;6305857;22;45533;-68
2023/06/12 13:35:41;;;;;;;;;22.50;22.50;;;;;24.93;68.26;100867.31;6304606;22;45461;-68
2023/06/12 13:38:11;;;;;;;;;22.25;22.00;;;;;25.01;68.22;100874.81;6304690;22;45461;-68
2023/06/12 13:40:36;;;;;;;;;20.25;18.25;;;;;24.85;67.68;100839.84;6306170;22;45338;-68
2023/06/12 13:43:02;;;;;;;;;24.50;23.25;;;;;24.94;69.21;100849.06;6304888;22;45664;-68
2023/06/12 13:45:28;;;;;;;;;24.50;21.75;;;;;25.09;69.32;100868.63;6305760;22;45912;-68
2023/06/12 13:47:54;;;;;;;;;20.25;20.25;;;;;25.01;68.73;100852.09;6306057;22;45780;-68
2023/06/12 13:50:19;;;;;;;;;21.00;19.50;;;;;25.19;69.05;100868.66;6307468;22;45500;-68
2023/06/12 13:52:44;;;;;;;;;23.50;21.25;;;;;25.21;68.27;100874.84;6305766;22;45520;-68
2023/06/12 13:55:10;;;;;;;;;19.75;19.50;;;;;25.23;68.70;100873.69;6276538;22;48420;-68
2023/06/12 13:57:39;;;;;;;;;22.00;22.00;;;;;25.25;67.90;100860.75;6306194;22;45335;-68
2023/06/12 14:00:07;;;;;;;;;19.25;17.25;;;;;25.21;68.56;100855.72;6305677;22;45342;-69
2023/06/12 14:02:33;;;;;;;;;20.00;19.25;;;;;25.13;68.64;100831.84;6277592;22;45358;-68
2023/06/12 14:04:59;;;;;;;;;20.00;20.00;;;;;25.18;68.47;100839.63;6276400;22;47880;-68
2023/06/12 14:07:25;;;;;;;;;30.00;27.25;;;;;25.14;67.85;100817.19;6305763;22;45465;-68
2023/06/12 14:09:50;;;;;;;;;21.00;20.50;;;;;25.25;67.69;100824.38;6306259;22;45287;-68
2023/06/12 14:12:15;;;;;;;;;23.00;21.25;;;;;25.30;68.32;100828.44;6278927;22;45395;-68
2023/06/12 14:14:46;;;;;;;;;21.50;21.00;;;;;25.37;68.04;100831.47;6306027;22;45492;-69
2023/06/12 14:17:11;;;;;;;;;23.75;21.75;;;;;25.33;68.08;100813.66;6277311;22;45594;-68
2023/06/12 14:19:37;;;;;;;;;26.00;22.25;;;;;25.32;67.54;100803.72;6306333;22;45714;-68
2023/06/12 14:22:03;;;;;;;;;21.75;21.00;;;;;25.37;67.27;100806.00;6277647;22;45696;-68
2023/06/12 14:24:28;;;;;;;;;19.25;19.00;;;;;25.42;67.48;100806.44;6306664;22;46117;-68
2023/06/12 14:26:54;;;;;;;;;23.50;22.25;;;;;25.48;67.52;100805.88;6305896;22;45598;-68
2023/06/12 14:29:19;;;;;;;;;20.00;19.00;;;;;25.54;67.25;100818.94;6306602;22;45342;-68
2023/06/12 14:31:44;;;;;;;;;22.50;21.00;;;;;25.56;66.97;100807.84;6306071;22;45429;-68
2023/06/12 14:34:10;;;;;;;;;27.00;25.75;;;;;25.58;67.46;100801.25;6305642;22;46244;-68
2023/06/12 14:36:35;;;;;;;;;22.25;20.25;;;;;25.55;67.42;100787.03;6306385;22;45342;-68
2023/06/12 14:39:01;;;;;;;;;21.75;21.25;;;;;25.82;67.01;100832.72;6305726;22;45295;-68
2023/06/12 14:41:26;;;;;;;;;24.75;22.25;;;;;25.79;67.09;100805.66;6305895;22;45378;-68
2023/06/12 14:43:52;;;;;;;;;18.50;18.50;;;;;25.76;67.46;100801.38;6279327;22;47090;-69
2023/06/12 14:46:17;;;;;;;;;19.00;17.50;;;;;25.80;66.70;100796.47;6306739;22;45439;-68
2023/06/12 14:48:42;;;;;;;;;18.50;17.50;;;;;25.80;65.96;100782.81;6306818;22;45930;-68
2023/06/12 14:51:08;;;;;;;;;22.50;20.75;;;;;25.93;65.81;100788.81;6307342;22;45369;-68
2023/06/12 14:53:33;;;;;;;;;17.00;16.75;;;;;26.07;66.22;100812.97;6307509;22;45637;-68
2023/06/12 14:56:02;;;;;;;;;22.00;22.00;;;;;25.97;65.13;100783.94;6306202;22;45303;-68
2023/06/12 14:58:27;;;;;;;;;20.75;20.75;;;;;25.97;65.32;100781.19;6307844;22;45594;-69
2023/06/12 15:00:53;;;;;;;;;21.50;19.50;;;;;25.94;65.12;100775.97;6307023;22;45452;-68
2023/06/12 15:03:18;;;;;;;;;24.00;22.50;;;;;26.03;65.46;100781.47;6307874;22;45998;-68
2023/06/12 15:05:44;;;;;;;;;22.25;22.25;;;;;26.00;65.18;100781.75;6307282;22;45620;-68
2023/06/12 15:08:09;;;;;;;;;19.75;19.75;;;;;25.97;64.52;100773.00;6306879;22;45434;-68
2023/06/12 15:10:35;;;;;;;;;20.50;19.25;;;;;26.02;65.29;100781.59;6307042;22;45287;-68
2023/06/12 15:13:00;;;;;;;;;19.50;19.00;;;;;26.09;64.47;100781.88;6279380;22;46799;-68
2023/06/12 15:15:25;;;;;;;;;18.75;18.75;;;;;25.93;64.12;100757.84;6306903;22;45552;-68
2023/06/12 15:17:51;;;;;;;;;23.00;22.00;;;;;26.07;65.02;100771.06;6306959;22;45384;-68
2023/06/12 15:20:17;;;;;;;;;20.75;20.25;;;;;25.93;64.44;100744.16;6307143;22;45324;-68
2023/06/12 15:22:42;;;;;;;;;27.25;24.25;;;;;26.17;64.86;100777.38;6306904;22;45228;-68
2023/06/12 15:25:08;;;;;;;;;21.00;21.00;;;;;26.19;64.70;100783.53;6305028;22;45376;-68
2023/06/12 15:27:33;;;;;;;;;20.50;20.00;;;;;26.10;64.52;100762.56;6306918;22;45488;-69
2023/06/12 15:29:59;;;;;;;;;20.00;19.25;;;;;26.13;64.71;100761.41;6306027;22;45274;-68
2023/06/12 15:32:24;;;;;;;;;23.50;23.50;;;;;26.12;64.06;100743.28;6307335;22;45298;-68
2023/06/12 15:34:50;;;;;;;;;26.00;23.75;;;;;26.26;63.48;100770.13;6306209;22;45247;-68
2023/06/12 15:37:17;;;;;;;;;22.00;20.25;;;;;26.11;63.35;100736.97;6279092;22;45749;-69
2023/06/12 15:39:47;;;;;;;;;23.00;23.00;;;;;26.30;64.24;100763.34;6305762;22;45494;-68
2023/06/12 15:42:13;;;;;;;;;23.25;22.50;;;;;26.17;63.54;100739.06;6306903;22;46318;-69
2023/06/12 15:44:38;;;;;;;;;19.25;17.75;;;;;26.25;63.45;100749.25;6307587;22;45521;-68
2023/06/12 15:47:04;;;;;;;;;20.00;19.75;;;;;26.17;64.25;100721.78;6306385;22;45321;-69
2023/06/12 15:49:29;;;;;;;;;24.00;23.75;;;;;26.42;62.94;100755.78;6307625;22;45339;-69
2023/06/12 15:51:55;;;;;;;;;23.50;23.50;;;;;26.36;64.04;100737.25;6279109;22;46327;-69
2023/06/12 15:54:25;;;;;;;;;23.00;20.75;;;;;26.32;63.21;100712.06;6307866;22;45391;-68
2023/06/12 15:56:52;;;;;;;;;22.50;20.75;;;;;26.40;63.29;100722.25;6278409;22;45855;-69
2023/06/12 15:59:18;;;;;;;;;23.50;21.25;;;;;26.50;63.38;100734.00;6306524;22;45298;-69
2023/06/12 16:01:44;;;;;;;;;21.25;21.25;;;;;26.39;63.42;100715.03;6306890;22;46114;-69
2023/06/12 16:04:10;;;;;;;;;22.00;22.00;;;;;26.44;63.04;100721.75;6306421;22;45321;-69
2023/06/12 16:06:37;;;;;;;;;20.75;19.50;;;;;26.50;63.44;100722.19;6305208;22;45302;-69
2023/06/12 16:09:03;;;;;;;;;23.50;23.50;;;;;26.62;62.86;100737.38;6307329;22;45703;-68
2023/06/12 16:11:29;;;;;;;;;21.00;21.00;;;;;26.53;63.39;100720.00;6306234;22;46348;-69
2023/06/12 16:13:54;;;;;;;;;23.00;21.00;;;;;26.60;62.92;100718.38;6307440;22;45776;-68
2023/06/12 16:16:20;;;;;;;;;24.50;23.00;;;;;26.62;62.69;100708.13;6305915;22;45649;-68
2023/06/12 16:18:45;;;;;;;;;18.50;16.00;;;;;26.73;62.86;100719.88;6303664;22;45481;-68
2023/06/12 16:21:13;;;;;;;;;23.50;23.00;;;;;26.76;63.08;100719.56;6305521;22;46183;-68
2023/06/12 16:23:38;;;;;;;;;18.50;18.00;;;;;26.79;62.52;100724.75;6306368;22;45307;-68
2023/06/12 16:26:33;;;;;;;;;25.25;22.25;;;;;26.79;62.28;100706.44;6305670;22;45473;-74
2023/06/12 16:29:00;;;;;;;;;24.75;22.75;;;;;26.64;62.66;100677.03;6306538;22;45515;-69
2023/06/12 16:31:26;;;;;;;;;25.25;24.50;;;;;26.86;62.53;100712.13;6278602;22;48128;-63
2023/06/12 16:33:51;;;;;;;;;24.00;23.50;;;;;26.85;62.06;100701.34;6308072;22;45253;-62
2023/06/12 16:36:17;;;;;;;;;26.00;24.25;;;;;26.86;62.07;100700.34;6306926;22;45532;-62
2023/06/12 16:38:42;;;;;;;;;20.50;20.00;;;;;26.88;61.37;100699.16;6307860;22;45365;-62
2023/06/12 16:41:08;;;;;;;;;18.75;18.50;;;;;26.79;61.50;100680.94;6307711;22;45530;-62
2023/06/12 16:43:33;;;;;;;;;23.50;23.50;;;;;26.91;61.50;100696.09;6308580;22;45295;-66
2023/06/12 16:45:58;;;;;;;;;24.25;23.25;;;;;26.94;61.24;100701.25;6308293;22;45354;-63
2023/06/12 16:48:24;;;;;;;;;20.25;20.25;;;;;26.93;61.43;100696.81;6279804;22;45369;-62
2023/06/12 16:50:49;;;;;;;;;25.25;24.50;;;;;26.91;61.53;100682.41;6307292;22;45393;-62
2023/06/12 16:53:15;;;;;;;;;25.25;25.25;;;;;26.97;61.08;100683.66;6280562;22;45818;-62
2023/06/12 16:55:40;;;;;;;;;22.25;21.25;;;;;26.95;61.17;100686.56;6308710;22;45310;-63
2023/06/12 16:58:05;;;;;;;;;22.75;21.75;;;;;26.93;61.13;100683.13;6307607;22;45299;-63
2023/06/12 17:00:31;;;;;;;;;24.00;24.00;;;;;27.02;61.32;100688.69;6308300;22;45525;-62
2023/06/12 17:02:56;;;;;;;;;23.75;23.00;;;;;26.96;60.71;100679.19;6308284;22;45390;-63
2023/06/12 17:05:21;;;;;;;;;26.75;26.50;;;;;26.98;60.44;100682.63;6309040;22;45216;-63
2023/06/12 17:07:47;;;;;;;;;22.50;21.00;;;;;26.99;60.27;100682.47;6307139;22;45429;-63
2023/06/12 17:10:12;;;;;;;;;23.75;22.50;;;;;26.94;60.04;100679.34;6308394;22;46121;-63
2023/06/12 17:12:38;;;;;;;;;23.75;22.50;;;;;26.98;60.18;100691.72;6308650;22;45307;-62
2023/06/12 17:15:04;;;;;;;;;21.25;20.00;;;;;27.00;59.50;100694.31;6280168;22;45302;-63
2023/06/12 17:17:29;;;;;;;;;21.50;19.75;;;;;26.98;60.15;100689.00;6308263;22;45362;-62
2023/06/12 17:19:55;;;;;;;;;19.50;19.50;;;;;26.94;59.85;100682.09;6307976;22;46254;-63
2023/06/12 17:22:20;;;;;;;;;24.75;23.75;;;;;26.98;60.28;100678.03;6280434;22;45312;-63
2023/06/12 17:24:46;;;;;;;;;21.75;21.00;;;;;26.93;60.24;100669.44;6308600;22;45850;-63
2023/06/12 17:27:11;;;;;;;;;24.00;23.50;;;;;27.01;60.44;100679.56;6279900;22;45249;-63
2023/06/12 17:29:36;;;;;;;;;23.75;23.50;;;;;27.02;60.88;100674.97;6308549;22;45434;-63
2023/06/12 17:32:03;;;;;;;;;25.25;24.75;;;;;26.97;61.02;100665.34;6307932;22;45315;-63
2023/06/12 17:34:28;;;;;;;;;19.00;18.50;;;;;26.97;60.30;100659.00;6308711;22;45354;-63
2023/06/12 17:36:53;;;;;;;;;23.00;22.50;;;;;27.01;60.16;100670.50;6306365;22;45226;-62
2023/06/12 17:39:19;;;;;;;;;19.00;19.00;;;;;26.88;60.66;100649.00;6274248;22;47295;-63
2023/06/12 17:41:44;;;;;;;;;23.75;22.25;;;;;26.96;60.52;100663.66;6276598;22;45879;-63
2023/06/12 17:44:10;;;;;;;;;26.00;26.00;;;;;26.94;60.40;100653.84;6273191;22;46693;-66
2023/06/12 17:46:35;;;;;;;;;25.00;24.00;;;;;26.85;60.63;100643.84;6270987;22;45381;-67
2023/06/12 17:49:00;;;;;;;;;23.75;22.50;;;;;26.87;60.19;100648.16;6271304;22;45423;-67
2023/06/12 17:51:26;;;;;;;;;21.25;21.25;;;;;26.86;60.75;100649.16;6271509;22;45764;-66
2023/06/12 17:53:52;;;;;;;;;19.75;19.00;;;;;26.83;60.56;100654.97;6272671;22;45771;-67